createdAt,value
2023-02-27T00:03:00.456Z,2.67
2023-02-27T00:06:02.333Z,2.13
2023-02-27T00:09:04.439Z,2.55
2023-02-27T00:12:07.260Z,2.10
2023-02-27T00:15:14.739Z,1.73
2023-02-27T00:18:16.610Z,2.13
2023-02-27T00:21:18.560Z,3.15
2023-02-27T00:24:22.510Z,2.58
2023-02-27T00:27:25.011Z,2.90
2023-02-27T00:30:27.393Z,1.50
2023-02-27T00:33:29.354Z,2.72
2023-02-27T00:36:31.493Z,2.15
2023-02-27T00:39:33.647Z,2.03
2023-02-27T00:42:36.158Z,1.43
2023-02-27T00:45:38.209Z,2.30
2023-02-27T00:48:40.130Z,2.58
2023-02-27T00:51:43.672Z,2.47
2023-02-27T00:54:45.543Z,1.98
2023-02-27T00:57:47.679Z,3.33
2023-02-27T01:00:50.408Z,2.72
2023-02-27T01:03:52.449Z,5.32
2023-02-27T01:06:54.486Z,7.13
2023-02-27T01:09:57.201Z,7.33
2023-02-27T01:12:59.250Z,2.87
2023-02-27T01:16:01.661Z,5.05
2023-02-27T01:19:04.863Z,5.47
2023-02-27T01:22:07.208Z,2.58
2023-02-27T01:25:09.979Z,3.13
2023-02-27T01:28:14.819Z,3.13
2023-02-27T01:31:18.956Z,3.20
2023-02-27T01:34:21.705Z,2.10
2023-02-27T01:37:23.603Z,2.30
2023-02-27T01:40:25.812Z,2.13
2023-02-27T01:43:28.028Z,1.50
2023-02-27T01:46:31.369Z,2.35
2023-02-27T01:49:34.816Z,2.08
2023-02-27T01:52:39.610Z,1.33
2023-02-27T01:55:42.730Z,1.30
2023-02-27T01:58:48.044Z,1.80
2023-02-27T02:01:51.005Z,1.65
2023-02-27T02:04:54.948Z,1.77
2023-02-27T02:07:58.371Z,1.90
2023-02-27T02:11:02.210Z,1.80
2023-02-27T02:14:04.612Z,1.47
2023-02-27T02:17:45.466Z,2.95
2023-02-27T02:21:20.641Z,1.55
2023-02-27T02:25:15.102Z,1.88
2023-02-27T02:28:34.678Z,2.37
2023-02-27T02:32:27.377Z,2.33
2023-02-27T02:35:53.953Z,2.30
2023-02-27T02:39:03.854Z,1.60
2023-02-27T02:42:31.840Z,1.92
2023-02-27T02:45:47.335Z,2.23
2023-02-27T02:49:31.077Z,1.57
2023-02-27T02:53:06.638Z,2.33
2023-02-27T02:56:34.946Z,2.20
2023-02-27T02:59:44.714Z,2.25
2023-02-27T03:03:03.299Z,2.05
2023-02-27T03:06:19.004Z,2.70
2023-02-27T03:09:36.747Z,2.38
2023-02-27T03:12:45.023Z,2.20
2023-02-27T03:15:58.985Z,1.90
2023-02-27T03:19:33.364Z,1.60
2023-02-27T03:22:42.466Z,1.80
2023-02-27T03:25:46.397Z,2.30
2023-02-27T03:28:55.808Z,2.35
2023-02-27T03:32:03.493Z,1.40
2023-02-27T03:35:07.411Z,1.67
2023-02-27T03:38:29.388Z,2.73
2023-02-27T03:41:37.420Z,1.58
2023-02-27T03:45:00.703Z,2.97
2023-02-27T03:48:04.110Z,1.55
2023-02-27T03:51:06.177Z,2.80
2023-02-27T03:54:17.100Z,1.87
2023-02-27T03:57:19.144Z,3.42
2023-02-27T04:00:23.704Z,3.38
2023-02-27T04:03:26.804Z,1.80
2023-02-27T04:06:48.538Z,3.17
2023-02-27T04:10:21.605Z,1.47
2023-02-27T04:13:38.694Z,1.70
2023-02-27T04:16:52.542Z,2.03
2023-02-27T04:20:18.576Z,1.88
2023-02-27T04:23:28.998Z,2.13
2023-02-27T04:26:37.496Z,1.77
2023-02-27T04:30:19.684Z,2.45
2023-02-27T04:33:39.910Z,2.33
2023-02-27T04:36:46.563Z,2.40
2023-02-27T04:39:54.922Z,2.20
2023-02-27T04:43:00.782Z,1.83
2023-02-27T04:46:06.462Z,2.40
2023-02-27T04:49:28.688Z,3.13
2023-02-27T04:52:37.421Z,2.00
2023-02-27T04:55:47.465Z,2.70
2023-02-27T04:59:00.629Z,2.20
2023-02-27T05:02:08.954Z,2.20
2023-02-27T05:05:18.238Z,2.97
2023-02-27T05:08:39.384Z,1.65
2023-02-27T05:11:56.939Z,2.07
2023-02-27T05:15:08.018Z,1.23
2023-02-27T05:18:14.096Z,1.45
2023-02-27T05:21:34.001Z,1.30
2023-02-27T05:39:54.363Z,2.60
2023-02-27T05:43:05.845Z,2.78
2023-02-27T05:46:14.764Z,3.63
2023-02-27T05:49:25.918Z,2.23
2023-02-27T05:52:30.417Z,1.93
2023-02-27T05:55:39.286Z,2.78
2023-02-27T05:58:45.988Z,2.10
2023-02-27T06:01:47.995Z,1.25
2023-02-27T06:04:50.087Z,2.37
2023-02-27T06:07:52.084Z,1.97
2023-02-27T06:43:05.569Z,1.38
2023-02-27T06:46:07.690Z,2.00
2023-02-27T06:49:10.001Z,2.07
2023-02-27T06:52:11.978Z,2.17
2023-02-27T06:55:19.937Z,2.70
2023-02-27T06:58:21.998Z,1.83
2023-02-27T07:01:26.385Z,2.88
2023-02-27T07:04:28.511Z,1.63
2023-02-27T07:07:34.018Z,1.90
2023-02-27T07:10:40.072Z,3.30
2023-02-27T07:13:42.328Z,1.92
2023-02-27T07:16:44.214Z,2.25
2023-02-27T07:19:46.165Z,1.90
2023-02-27T07:22:48.200Z,1.60
2023-02-27T07:25:50.175Z,1.88
2023-02-27T07:28:52.032Z,1.70
2023-02-27T07:31:54.095Z,1.73
2023-02-27T07:34:56.052Z,2.25
2023-02-27T07:37:57.922Z,1.87
2023-02-27T07:40:59.955Z,3.45
2023-02-27T07:44:02.146Z,2.25
2023-02-27T07:47:04.178Z,2.03
2023-02-27T07:50:06.442Z,1.97
2023-02-27T07:53:08.914Z,1.43
2023-02-27T07:56:11.046Z,2.28
2023-02-27T07:59:13.016Z,2.05
2023-02-27T08:02:17.956Z,1.85
2023-02-27T08:05:19.918Z,1.83
2023-02-27T08:08:21.976Z,2.53
2023-02-27T08:11:23.960Z,1.65
2023-02-27T08:14:25.967Z,1.13
2023-02-27T08:17:27.830Z,1.20
2023-02-27T08:20:29.863Z,2.23
2023-02-27T08:23:32.723Z,1.67
2023-02-27T08:26:34.858Z,1.98
2023-02-27T08:29:37.103Z,1.88
2023-02-27T08:32:39.419Z,3.03
2023-02-27T08:35:41.332Z,2.03
2023-02-27T08:38:43.676Z,2.30
2023-02-27T08:41:45.602Z,2.53
2023-02-27T08:44:47.588Z,2.45
2023-02-27T08:47:49.454Z,1.20
2023-02-27T08:50:51.903Z,1.90
2023-02-27T08:53:56.010Z,1.83
2023-02-27T08:56:57.871Z,1.70
2023-02-27T08:59:59.792Z,1.27
2023-02-27T09:03:02.145Z,2.45
2023-02-27T09:06:05.288Z,2.00
2023-02-27T09:09:07.320Z,1.40
2023-02-27T09:12:09.468Z,1.88
2023-02-27T09:15:12.210Z,1.83
2023-02-27T09:18:14.683Z,2.20
2023-02-27T09:21:17.653Z,2.50
2023-02-27T09:24:20.905Z,3.03
2023-02-27T09:27:23.956Z,1.80
2023-02-27T09:30:26.646Z,1.55
2023-02-27T09:33:29.319Z,1.55
2023-02-27T09:36:31.415Z,1.50
2023-02-27T09:39:33.601Z,1.53
2023-02-27T09:42:45.553Z,2.35
2023-02-27T09:45:52.513Z,2.63
2023-02-27T09:48:59.838Z,1.92
2023-02-27T09:52:02.364Z,2.05
2023-02-27T09:55:17.468Z,1.63
2023-02-27T09:58:37.736Z,2.17
2023-02-27T10:02:09.167Z,2.03
2023-02-27T10:05:31.204Z,1.75
2023-02-27T10:08:48.651Z,2.00
2023-02-27T10:12:02.605Z,1.97
2023-02-27T10:15:26.036Z,1.90
2023-02-27T10:18:33.355Z,2.13
2023-02-27T10:21:41.187Z,2.10
2023-02-27T10:24:57.003Z,2.20
2023-02-27T10:28:11.160Z,2.10
2023-02-27T10:31:21.438Z,1.40
2023-02-27T10:34:27.090Z,1.73
2023-02-27T10:37:30.196Z,2.30
2023-02-27T10:40:36.446Z,2.00
2023-02-27T10:43:38.631Z,1.83
2023-02-27T10:46:40.986Z,2.35
2023-02-27T10:49:44.167Z,2.20
2023-02-27T10:52:55.647Z,1.80
2023-02-27T10:56:01.633Z,2.20
2023-02-27T10:59:17.306Z,2.37
2023-02-27T11:02:23.472Z,2.03
2023-02-27T11:05:29.017Z,1.73
2023-02-27T11:08:32.599Z,1.70
2023-02-27T11:11:34.702Z,2.10
2023-02-27T11:14:49.841Z,2.00
2023-02-27T11:17:53.170Z,1.95
2023-02-27T11:21:19.614Z,1.92
2023-02-27T11:24:21.669Z,1.50
2023-02-27T11:27:29.961Z,2.00
2023-02-27T13:22:17.003Z,1.55
2023-02-27T13:25:20.007Z,1.40
2023-02-27T13:28:27.547Z,2.40
2023-02-27T13:45:48.567Z,2.00
2023-02-27T13:48:53.676Z,1.85
2023-02-27T13:51:59.371Z,2.27
2023-02-27T13:55:11.886Z,1.70
2023-02-27T13:58:18.237Z,1.83
2023-02-27T14:01:28.567Z,1.45
2023-02-27T14:04:38.337Z,2.42
2023-02-27T14:08:00.703Z,1.73
2023-02-27T14:11:17.224Z,2.40
2023-02-27T14:14:47.027Z,1.77
2023-02-27T14:17:56.840Z,1.60
2023-02-27T14:21:01.503Z,2.28
2023-02-27T14:24:04.360Z,2.10
2023-02-27T14:27:24.058Z,2.67
2023-02-27T14:30:44.669Z,3.50
2023-02-27T14:33:50.523Z,2.28
2023-02-27T14:36:55.460Z,2.28
2023-02-27T14:40:01.229Z,2.43
2023-02-27T14:43:22.339Z,2.00
2023-02-27T14:46:24.123Z,2.60
2023-02-27T14:49:30.015Z,2.03
2023-02-27T14:52:41.324Z,2.03
2023-02-27T14:55:53.964Z,1.80
2023-02-27T14:59:04.390Z,2.57
2023-02-27T15:02:18.797Z,1.75
2023-02-27T15:05:28.755Z,1.98
2023-02-27T15:08:36.176Z,2.40
2023-02-27T15:11:43.195Z,2.10
2023-02-27T15:14:49.940Z,2.27
2023-02-27T15:34:17.048Z,2.03
2023-02-27T15:43:57.437Z,2.33
2023-02-27T15:48:03.326Z,1.75
2023-02-27T15:56:42.413Z,3.00
2023-02-27T15:59:44.739Z,1.77
2023-02-27T16:02:54.262Z,2.53
2023-02-27T16:05:57.222Z,2.65
2023-02-27T16:09:28.893Z,7.28
2023-02-27T16:12:38.249Z,5.47
2023-02-27T16:15:41.110Z,4.03
2023-02-27T16:18:48.651Z,4.43
2023-02-27T16:22:04.118Z,4.25
2023-02-27T16:25:18.469Z,3.20
2023-02-27T16:28:20.432Z,2.03
2023-02-27T16:31:28.058Z,3.90
2023-02-27T16:34:45.776Z,2.47
2023-02-27T16:37:50.300Z,3.15
2023-02-27T16:40:52.581Z,2.10
2023-02-27T16:43:55.816Z,2.60
2023-02-27T16:46:58.970Z,2.27
2023-02-27T16:50:00.901Z,2.97
2023-02-27T16:53:02.964Z,1.92
2023-02-27T16:56:05.215Z,3.45
2023-02-27T16:59:07.530Z,3.73
2023-02-27T17:02:14.919Z,12.00
2023-02-27T17:05:17.918Z,26.00
2023-02-27T17:08:22.303Z,11.43
2023-02-27T17:11:24.295Z,3.22
2023-02-27T17:14:26.255Z,2.30
2023-02-27T17:17:28.366Z,7.37
2023-02-27T17:20:30.670Z,5.88
2023-02-27T17:23:32.653Z,5.13
2023-02-27T17:26:35.369Z,4.13
2023-02-27T17:29:39.120Z,5.30
2023-02-27T17:32:41.099Z,14.13
2023-02-27T17:35:43.065Z,9.45
2023-02-27T17:38:45.011Z,4.88
2023-02-27T17:41:47.701Z,3.38
2023-02-27T17:44:49.774Z,2.73
2023-02-27T17:47:51.680Z,3.43
2023-02-27T17:50:53.897Z,2.80
2023-02-27T17:53:55.965Z,2.13
2023-02-27T17:56:58.119Z,4.60
2023-02-27T18:00:00.233Z,2.50
2023-02-27T18:03:02.483Z,4.97
2023-02-27T18:06:06.486Z,2.28
2023-02-27T18:09:09.182Z,4.05
2023-02-27T18:12:11.501Z,4.93
2023-02-27T18:15:13.621Z,3.00
2023-02-27T18:18:16.884Z,3.27
2023-02-27T18:21:21.420Z,4.35
2023-02-27T18:24:24.127Z,3.90
2023-02-27T18:27:28.053Z,2.92
2023-02-27T18:30:33.553Z,3.40
2023-02-27T18:33:35.715Z,2.77
2023-02-27T18:36:38.776Z,2.45
2023-02-27T18:40:12.751Z,2.05
2023-02-27T18:43:47.349Z,3.20
2023-02-27T18:52:28.848Z,4.10
2023-02-27T19:01:38.615Z,3.67
2023-02-27T19:05:20.701Z,3.53
2023-02-27T19:09:30.881Z,4.00
2023-02-27T19:12:52.635Z,3.80
2023-02-27T19:15:55.800Z,3.65
2023-02-27T19:18:58.967Z,5.75
2023-02-27T19:22:01.050Z,5.30
2023-02-27T19:25:03.176Z,4.40
2023-02-27T19:28:06.441Z,5.23
2023-02-27T19:31:12.355Z,3.85
2023-02-27T19:34:14.971Z,3.30
2023-02-27T19:37:17.482Z,5.65
2023-02-27T19:40:21.491Z,3.60
2023-02-27T19:43:23.660Z,2.53
2023-02-27T19:46:29.325Z,3.35
2023-02-27T19:49:31.840Z,1.85
2023-02-27T19:52:37.604Z,4.05
2023-02-27T19:55:39.615Z,2.60
2023-02-27T19:58:42.368Z,3.03
2023-02-27T20:01:44.571Z,3.03
2023-02-27T20:04:46.888Z,2.55
2023-02-27T20:07:49.368Z,3.30
2023-02-27T20:10:59.172Z,2.87
2023-02-27T20:14:02.435Z,4.07
2023-02-27T20:17:04.554Z,2.30
2023-02-27T20:20:07.463Z,2.53
2023-02-27T20:23:09.655Z,3.33
2023-02-27T20:26:23.602Z,3.27
2023-02-27T20:29:28.006Z,2.77
2023-02-27T20:32:29.980Z,3.40
2023-02-27T20:35:32.456Z,3.05
2023-02-27T20:38:39.139Z,3.22
2023-02-27T20:41:41.366Z,1.50
2023-02-27T20:44:43.725Z,2.97
2023-02-27T20:47:45.833Z,3.47
2023-02-27T20:50:48.079Z,2.97
2023-02-27T20:53:53.501Z,2.45
2023-02-27T20:56:56.673Z,3.43
2023-02-27T20:59:58.806Z,5.67
2023-02-27T21:03:03.617Z,4.45
2023-02-27T21:06:07.489Z,5.75
2023-02-27T21:09:10.942Z,3.08
2023-02-27T21:12:13.270Z,2.40
2023-02-27T21:15:15.287Z,3.60
2023-02-27T21:18:17.212Z,4.28
2023-02-27T21:21:23.328Z,4.32
2023-02-27T21:24:25.542Z,4.07
2023-02-27T21:27:27.728Z,3.25
2023-02-27T21:30:30.148Z,3.37
2023-02-27T21:33:32.139Z,2.80
2023-02-27T21:36:42.222Z,3.38
2023-02-27T21:39:50.471Z,3.67
2023-02-27T21:42:53.036Z,2.70
2023-02-27T21:45:56.021Z,2.63
2023-02-27T21:48:58.487Z,2.88
2023-02-27T21:52:00.404Z,4.13
2023-02-27T21:55:03.162Z,2.25
2023-02-27T21:58:07.501Z,2.90
2023-02-27T22:01:17.899Z,2.73
2023-02-27T22:04:20.358Z,3.75
2023-02-27T22:07:22.443Z,7.47
2023-02-27T22:10:24.796Z,3.65
2023-02-27T22:13:27.328Z,3.97
2023-02-27T22:16:29.362Z,4.03
2023-02-27T22:19:31.192Z,3.75
2023-02-27T22:22:33.453Z,4.20
2023-02-27T22:25:36.398Z,3.85
2023-02-27T22:28:41.286Z,4.07
2023-02-27T22:31:43.891Z,3.73
2023-02-27T22:34:45.867Z,3.33
2023-02-27T22:37:48.092Z,3.10
2023-02-27T22:40:50.124Z,2.70
2023-02-27T22:43:52.420Z,3.63
2023-02-27T22:46:55.842Z,2.47
2023-02-27T22:49:58.608Z,1.75
2023-02-27T22:53:00.515Z,3.00
2023-02-27T22:56:02.449Z,2.78
2023-02-27T22:59:06.044Z,2.37
2023-02-27T23:02:08.257Z,2.20
2023-02-27T23:05:10.831Z,3.30
2023-02-27T23:08:12.751Z,1.70
2023-02-27T23:11:16.109Z,1.40
2023-02-27T23:14:19.952Z,2.33
2023-02-27T23:17:21.790Z,2.57
2023-02-27T23:20:23.687Z,2.60
2023-02-27T23:23:28.343Z,2.17
2023-02-27T23:26:30.234Z,2.72
2023-02-27T23:29:32.339Z,3.60
2023-02-27T23:32:43.418Z,3.27
2023-02-27T23:35:45.370Z,2.22
2023-02-27T23:38:47.744Z,2.78
2023-02-27T23:41:49.758Z,3.90
2023-02-27T23:44:51.947Z,3.08
2023-02-27T23:47:56.002Z,3.50
2023-02-27T23:50:58.182Z,2.83
2023-02-27T23:54:00.311Z,2.88
2023-02-27T23:57:02.218Z,4.15
